Time;durP1;ratioP1;P1;durP2;ratioP2;P2;SDS_P1;SDS_P2;PMS_P1;PMS_P2;Temp;Humidity;BMP_temperature;BMP_pressure;BME280_temperature;BME280_humidity;BME280_pressure;Samples;Min_cycle;Max_cycle;Signal;HPM_P1;HPM_P2
2020/12/05 00:02:09;;;;;;;23.97;20.70;;;;;;;;;;5067667;28;20722;-58
2020/12/05 00:04:34;;;;;;;24.52;19.85;;;;;;;;;;5068906;28;20189;-58
2020/12/05 00:07:00;;;;;;;26.35;20.08;;;;;;;;;;5069075;28;20198;-58
2020/12/05 00:09:25;;;;;;;25.23;20.27;;;;;;;;;;5067870;28;20199;-58
2020/12/05 00:11:50;;;;;;;26.63;20.50;;;;;;;;;;5068441;28;20182;-58
2020/12/05 00:14:15;;;;;;;26.27;21.47;;;;;;;;;;5066044;28;20512;-58
2020/12/05 00:16:40;;;;;;;24.65;20.13;;;;;;;;;;5072456;28;20220;-58
2020/12/05 00:19:05;;;;;;;25.73;20.07;;;;;;;;;;5071290;28;20175;-58
2020/12/05 00:21:31;;;;;;;23.70;18.77;;;;;;;;;;5073121;28;20326;-58
2020/12/05 00:23:56;;;;;;;25.57;19.73;;;;;;;;;;5072567;28;20181;-58
2020/12/05 00:26:21;;;;;;;26.15;20.80;;;;;;;;;;5067599;28;20175;-58
2020/12/05 00:28:47;;;;;;;23.70;20.30;;;;;;;;;;5066635;28;20176;-58
2020/12/05 00:31:12;;;;;;;24.53;18.83;;;;;;;;;;5072013;28;20188;-58
2020/12/05 00:33:38;;;;;;;23.77;20.20;;;;;;;;;;5072799;28;20173;-58
2020/12/05 00:36:03;;;;;;;24.73;19.70;;;;;;;;;;5072724;28;20167;-58
2020/12/05 00:38:28;;;;;;;22.48;18.55;;;;;;;;;;5072793;28;20175;-58
2020/12/05 00:40:53;;;;;;;24.33;18.80;;;;;;;;;;5072653;28;20274;-58
2020/12/05 00:43:18;;;;;;;22.70;18.80;;;;;;;;;;5073206;28;20218;-58
2020/12/05 00:45:44;;;;;;;25.13;20.13;;;;;;;;;;5072484;28;20692;-58
2020/12/05 00:48:09;;;;;;;24.77;19.27;;;;;;;;;;5071520;28;20179;-58
2020/12/05 00:50:34;;;;;;;24.33;18.50;;;;;;;;;;5070561;28;20181;-58
2020/12/05 00:52:59;;;;;;;24.10;19.73;;;;;;;;;;5072341;28;20190;-58
2020/12/05 00:55:24;;;;;;;20.02;17.58;;;;;;;;;;5072440;28;20172;-57
2020/12/05 00:57:49;;;;;;;21.25;17.50;;;;;;;;;;5071766;28;20198;-57
2020/12/05 01:00:17;;;;;;;21.27;18.13;;;;;;;;;;5068375;28;20645;-57
2020/12/05 01:02:42;;;;;;;23.07;18.83;;;;;;;;;;5070713;28;20681;-57
2020/12/05 01:05:07;;;;;;;23.25;19.13;;;;;;;;;;5069229;28;20593;-57
2020/12/05 01:07:32;;;;;;;23.03;18.80;;;;;;;;;;5070632;28;20234;-58
2020/12/05 01:09:58;;;;;;;20.93;17.73;;;;;;;;;;5070221;28;20254;-58
2020/12/05 01:12:24;;;;;;;22.90;18.30;;;;;;;;;;5071897;28;20309;-58
2020/12/05 01:14:49;;;;;;;26.63;18.80;;;;;;;;;;5071800;28;20178;-58
2020/12/05 01:17:14;;;;;;;22.70;17.80;;;;;;;;;;5071309;28;20640;-58
2020/12/05 01:19:40;;;;;;;20.97;18.10;;;;;;;;;;5069558;28;20301;-58
2020/12/05 01:22:05;;;;;;;20.58;18.30;;;;;;;;;;5073300;28;20175;-58
2020/12/05 01:24:30;;;;;;;20.33;17.65;;;;;;;;;;5072158;28;20181;-58
2020/12/05 01:26:55;;;;;;;22.73;18.70;;;;;;;;;;5071466;28;20647;-57
2020/12/05 01:29:20;;;;;;;22.85;18.23;;;;;;;;;;5067184;28;20212;-58
2020/12/05 01:31:48;;;;;;;22.85;18.63;;;;;;;;;;5071537;28;20614;-58
2020/12/05 01:34:14;;;;;;;19.50;17.40;;;;;;;;;;5071344;28;20179;-58
2020/12/05 01:36:45;;;;;;;20.83;16.90;;;;;;;;;;5071954;28;20933;-58
2020/12/05 01:39:11;;;;;;;22.27;18.97;;;;;;;;;;5067506;28;20688;-58
2020/12/05 01:41:36;;;;;;;21.67;16.90;;;;;;;;;;5068405;28;20621;-58
2020/12/05 01:44:02;;;;;;;23.93;19.00;;;;;;;;;;5071166;28;20693;-58
2020/12/05 01:46:38;;;;;;;19.23;17.13;;;;;;;;;;5074226;28;20242;-57
2020/12/05 01:49:03;;;;;;;21.60;17.47;;;;;;;;;;5062691;28;20167;-57
2020/12/05 01:51:29;;;;;;;27.33;19.03;;;;;;;;;;5070397;28;20606;-58
2020/12/05 01:53:55;;;;;;;24.63;18.40;;;;;;;;;;5071568;28;20178;-58
2020/12/05 01:56:21;;;;;;;20.33;17.10;;;;;;;;;;5071003;28;20232;-58
2020/12/05 01:58:46;;;;;;;19.23;16.73;;;;;;;;;;5069333;28;21216;-58
2020/12/05 02:01:13;;;;;;;21.17;18.23;;;;;;;;;;5074498;28;21236;-58
2020/12/05 02:03:38;;;;;;;20.97;17.03;;;;;;;;;;5070741;28;20229;-58
2020/12/05 02:06:08;;;;;;;22.90;18.80;;;;;;;;;;5071489;28;20593;-57
2020/12/05 02:08:38;;;;;;;21.00;18.30;;;;;;;;;;5067267;28;20167;-57
2020/12/05 02:11:03;;;;;;;23.93;18.83;;;;;;;;;;5068844;28;20728;-57
2020/12/05 02:13:40;;;;;;;21.40;17.47;;;;;;;;;;5070894;28;21396;-58
2020/12/05 02:16:06;;;;;;;22.03;17.60;;;;;;;;;;5070080;28;20222;-57
2020/12/05 02:18:32;;;;;;;20.53;17.30;;;;;;;;;;5068134;28;21080;-58
2020/12/05 02:20:59;;;;;;;21.73;17.20;;;;;;;;;;5076572;28;20316;-57
2020/12/05 02:23:25;;;;;;;20.07;15.87;;;;;;;;;;5070396;28;20624;-58
2020/12/05 02:25:52;;;;;;;20.80;17.67;;;;;;;;;;5070842;28;20632;-58
2020/12/05 02:28:18;;;;;;;19.80;17.67;;;;;;;;;;5068185;28;20176;-58
2020/12/05 02:30:44;;;;;;;19.50;16.83;;;;;;;;;;5069602;28;20699;-58
2020/12/05 02:33:09;;;;;;;20.93;16.87;;;;;;;;;;5068779;28;20617;-58
2020/12/05 02:35:34;;;;;;;19.67;16.97;;;;;;;;;;5070588;28;20178;-58
2020/12/05 02:38:02;;;;;;;18.73;16.43;;;;;;;;;;5069764;28;20171;-58
2020/12/05 02:40:27;;;;;;;20.50;16.90;;;;;;;;;;5070371;28;20213;-58
2020/12/05 02:43:29;;;;;;;22.20;17.33;;;;;;;;;;5067042;28;20676;-58
2020/12/05 02:46:00;;;;;;;20.37;16.90;;;;;;;;;;5067312;28;20175;-58
2020/12/05 02:48:25;;;;;;;21.90;16.90;;;;;;;;;;5066915;28;20597;-58
2020/12/05 02:50:50;;;;;;;19.63;16.20;;;;;;;;;;5070037;28;21146;-57
2020/12/05 02:53:15;;;;;;;21.20;16.10;;;;;;;;;;5073819;28;20659;-57
2020/12/05 02:56:01;;;;;;;19.85;16.63;;;;;;;;;;5070085;28;20208;-58
2020/12/05 02:58:26;;;;;;;18.57;16.67;;;;;;;;;;5062626;28;20197;-57
2020/12/05 03:00:51;;;;;;;20.10;16.73;;;;;;;;;;5069665;28;20651;-57
2020/12/05 03:03:16;;;;;;;18.23;15.93;;;;;;;;;;5069653;28;20269;-58
2020/12/05 03:05:41;;;;;;;20.08;16.58;;;;;;;;;;5069052;28;20575;-57
2020/12/05 03:08:06;;;;;;;19.90;16.40;;;;;;;;;;5070168;28;20203;-58
2020/12/05 03:10:32;;;;;;;19.30;15.90;;;;;;;;;;5068398;28;20650;-58
2020/12/05 03:12:57;;;;;;;19.37;16.90;;;;;;;;;;5069870;28;20220;-58
2020/12/05 03:15:22;;;;;;;19.67;16.33;;;;;;;;;;5069113;28;20217;-58
2020/12/05 03:17:47;;;;;;;21.55;16.05;;;;;;;;;;5068536;28;20187;-58
2020/12/05 03:20:12;;;;;;;20.88;15.73;;;;;;;;;;5067739;28;21804;-57
2020/12/05 03:22:38;;;;;;;20.55;17.35;;;;;;;;;;5066108;28;20218;-58
2020/12/05 03:25:03;;;;;;;20.63;16.43;;;;;;;;;;5069283;28;20167;-57
2020/12/05 03:27:28;;;;;;;20.73;16.80;;;;;;;;;;5075718;28;20174;-58
2020/12/05 03:29:54;;;;;;;21.52;17.70;;;;;;;;;;5067661;28;20540;-58
2020/12/05 03:32:22;;;;;;;18.20;16.17;;;;;;;;;;5069190;28;20236;-58
2020/12/05 03:34:48;;;;;;;19.63;15.33;;;;;;;;;;5076089;28;20585;-58
2020/12/05 03:37:13;;;;;;;19.43;14.63;;;;;;;;;;5073018;28;21208;-58
2020/12/05 03:39:38;;;;;;;20.20;16.10;;;;;;;;;;5067197;28;20664;-57
2020/12/05 03:42:04;;;;;;;17.90;16.00;;;;;;;;;;5069345;28;20241;-58
2020/12/05 03:44:29;;;;;;;17.87;15.97;;;;;;;;;;5069390;28;20167;-58
2020/12/05 03:46:55;;;;;;;19.30;16.80;;;;;;;;;;5067200;28;20640;-58
2020/12/05 03:49:20;;;;;;;18.90;16.27;;;;;;;;;;5066421;28;20184;-58
2020/12/05 03:51:45;;;;;;;17.73;15.38;;;;;;;;;;5069774;28;20183;-57
2020/12/05 03:54:10;;;;;;;21.47;16.90;;;;;;;;;;5068634;28;20209;-58
2020/12/05 03:56:36;;;;;;;19.85;16.02;;;;;;;;;;5068658;28;20199;-58
2020/12/05 03:59:01;;;;;;;18.80;16.75;;;;;;;;;;5067827;28;20548;-58
2020/12/05 04:01:26;;;;;;;19.40;16.73;;;;;;;;;;5068667;28;20175;-58
2020/12/05 04:03:51;;;;;;;19.92;15.75;;;;;;;;;;5069014;28;20174;-58
2020/12/05 04:06:16;;;;;;;19.70;16.80;;;;;;;;;;5069421;28;20427;-58
2020/12/05 04:08:42;;;;;;;17.10;15.07;;;;;;;;;;5066371;28;20396;-58
2020/12/05 04:11:07;;;;;;;17.17;15.45;;;;;;;;;;5068889;28;20626;-58
2020/12/05 04:13:32;;;;;;;19.00;16.07;;;;;;;;;;5069152;28;20177;-58
2020/12/05 04:15:57;;;;;;;16.40;14.80;;;;;;;;;;5068825;28;20226;-57
2020/12/05 04:18:22;;;;;;;16.17;14.38;;;;;;;;;;5068028;28;20186;-58
2020/12/05 04:20:48;;;;;;;17.33;15.20;;;;;;;;;;5067208;28;20296;-57
2020/12/05 04:23:13;;;;;;;18.90;16.20;;;;;;;;;;5069185;28;20187;-58
2020/12/05 04:25:38;;;;;;;17.08;13.93;;;;;;;;;;5068854;28;20170;-58
2020/12/05 04:28:03;;;;;;;17.65;15.77;;;;;;;;;;5065610;28;20173;-58
2020/12/05 04:30:28;;;;;;;17.67;15.10;;;;;;;;;;5067025;28;20189;-58
2020/12/05 04:32:53;;;;;;;17.10;15.30;;;;;;;;;;5069316;28;20662;-58
2020/12/05 04:35:19;;;;;;;15.45;13.70;;;;;;;;;;5068643;28;20263;-57
2020/12/05 04:37:45;;;;;;;16.00;14.47;;;;;;;;;;5070678;28;20186;-56
2020/12/05 04:40:10;;;;;;;17.40;15.40;;;;;;;;;;5066587;28;20653;-57
2020/12/05 04:42:42;;;;;;;19.15;15.80;;;;;;;;;;5068319;28;20254;-57
2020/12/05 04:45:07;;;;;;;18.33;14.90;;;;;;;;;;5068850;28;20180;-57
2020/12/05 04:47:32;;;;;;;19.17;15.70;;;;;;;;;;5068746;28;20784;-56
2020/12/05 04:49:59;;;;;;;17.37;14.83;;;;;;;;;;5061404;28;20203;-56
2020/12/05 04:52:26;;;;;;;19.13;14.57;;;;;;;;;;5068374;28;20191;-57
2020/12/05 04:54:52;;;;;;;17.40;15.30;;;;;;;;;;5065051;28;20636;-57
2020/12/05 04:57:19;;;;;;;19.03;15.40;;;;;;;;;;5068337;28;20616;-56
2020/12/05 04:59:44;;;;;;;15.50;13.70;;;;;;;;;;5065111;28;21239;-57
2020/12/05 05:02:10;;;;;;;15.57;13.90;;;;;;;;;;5072180;28;21158;-59
2020/12/05 05:04:35;;;;;;;19.80;15.20;;;;;;;;;;5072207;28;20645;-57
2020/12/05 05:07:03;;;;;;;17.33;14.53;;;;;;;;;;5072718;28;20652;-57
2020/12/05 05:09:29;;;;;;;17.67;15.87;;;;;;;;;;5069828;28;20320;-57
2020/12/05 05:11:55;;;;;;;16.17;13.23;;;;;;;;;;5067241;28;20650;-57
2020/12/05 05:14:30;;;;;;;15.60;13.90;;;;;;;;;;5071283;28;20547;-57
2020/12/05 05:17:02;;;;;;;17.80;14.80;;;;;;;;;;5071230;28;20626;-57
2020/12/05 05:19:27;;;;;;;17.60;15.47;;;;;;;;;;5070126;28;20737;-57
2020/12/05 05:21:52;;;;;;;17.00;14.90;;;;;;;;;;5067582;28;20671;-56
2020/12/05 05:24:19;;;;;;;15.20;13.60;;;;;;;;;;5071525;28;20190;-57
2020/12/05 05:26:45;;;;;;;15.93;14.33;;;;;;;;;;5071943;28;20269;-57
2020/12/05 05:29:23;;;;;;;17.37;15.13;;;;;;;;;;5068726;28;20693;-57
2020/12/05 05:32:13;;;;;;;19.03;16.90;;;;;;;;;;5071123;28;20609;-56
2020/12/05 05:34:34;;;;;;;17.70;15.90;;;;;;;;;;5070658;28;20606;-56
2020/12/05 05:36:59;;;;;;;17.93;15.00;;;;;;;;;;5070425;28;20601;-57
2020/12/05 05:39:44;;;;;;;17.20;13.83;;;;;;;;;;5069686;28;20572;-58
2020/12/05 05:42:10;;;;;;;17.83;15.33;;;;;;;;;;5072196;28;20211;-57
2020/12/05 05:44:35;;;;;;;17.27;15.40;;;;;;;;;;5066685;28;20983;-58
2020/12/05 05:47:01;;;;;;;17.05;15.35;;;;;;;;;;5070839;28;20176;-57
2020/12/05 05:49:29;;;;;;;16.40;14.70;;;;;;;;;;5069455;28;20234;-58
2020/12/05 05:51:55;;;;;;;19.30;15.30;;;;;;;;;;5070735;28;20190;-57
2020/12/05 05:54:23;;;;;;;16.17;14.47;;;;;;;;;;5076950;28;20637;-57
2020/12/05 05:57:01;;;;;;;16.67;14.77;;;;;;;;;;5069692;28;20996;-57
2020/12/05 05:59:31;;;;;;;17.70;14.80;;;;;;;;;;5068975;28;20738;-57
2020/12/05 06:01:56;;;;;;;18.33;15.57;;;;;;;;;;5071518;28;20597;-57
2020/12/05 06:04:26;;;;;;;18.07;15.10;;;;;;;;;;5071072;28;20971;-57
2020/12/05 06:06:52;;;;;;;17.90;14.80;;;;;;;;;;5063782;28;20203;-57
2020/12/05 06:09:21;;;;;;;15.77;13.87;;;;;;;;;;5071491;28;21101;-56
2020/12/05 06:11:47;;;;;;;16.70;15.00;;;;;;;;;;5068262;28;20172;-57
2020/12/05 06:14:13;;;;;;;18.50;16.60;;;;;;;;;;5061786;28;21162;-57
2020/12/05 06:16:39;;;;;;;19.40;16.10;;;;;;;;;;5069843;28;20745;-57
2020/12/05 06:19:30;;;;;;;17.73;15.83;;;;;;;;;;5070284;28;20626;-57
2020/12/05 06:21:55;;;;;;;17.57;14.80;;;;;;;;;;5037832;28;20610;-57
2020/12/05 06:24:25;;;;;;;19.17;17.17;;;;;;;;;;5070879;28;20715;-57
2020/12/05 06:26:53;;;;;;;18.53;16.17;;;;;;;;;;5068812;28;20624;-57
2020/12/05 06:29:18;;;;;;;17.17;15.37;;;;;;;;;;5070560;28;20628;-57
2020/12/05 06:31:44;;;;;;;16.47;14.70;;;;;;;;;;5068763;28;20639;-59
2020/12/05 06:34:10;;;;;;;16.80;14.47;;;;;;;;;;5069111;28;20176;-57
2020/12/05 06:36:36;;;;;;;16.73;14.93;;;;;;;;;;5070197;28;20632;-57
2020/12/05 06:39:10;;;;;;;15.80;14.10;;;;;;;;;;5068330;28;20179;-57
2020/12/05 06:41:37;;;;;;;17.73;15.30;;;;;;;;;;5061337;28;20648;-57
2020/12/05 06:44:11;;;;;;;16.57;14.83;;;;;;;;;;5075080;28;20865;-56
2020/12/05 06:46:52;;;;;;;16.93;15.13;;;;;;;;;;5063881;28;20616;-56
2020/12/05 06:49:39;;;;;;;17.20;14.67;;;;;;;;;;5072776;28;20601;-57
2020/12/05 06:52:23;;;;;;;16.03;14.33;;;;;;;;;;5068698;28;20692;-57
2020/12/05 06:54:48;;;;;;;16.40;14.70;;;;;;;;;;5069060;28;20613;-57
2020/12/05 06:57:14;;;;;;;15.37;13.77;;;;;;;;;;5063841;28;20710;-57
2020/12/05 06:59:39;;;;;;;15.98;13.50;;;;;;;;;;5066699;28;20191;-57
2020/12/05 07:02:24;;;;;;;16.10;14.38;;;;;;;;;;5067169;28;20191;-56
2020/12/05 07:04:49;;;;;;;18.30;14.67;;;;;;;;;;5060832;28;20271;-56
2020/12/05 07:07:30;;;;;;;18.23;13.63;;;;;;;;;;5067999;28;20625;-58
2020/12/05 07:09:55;;;;;;;15.90;14.30;;;;;;;;;;5067142;28;20278;-56
2020/12/05 07:12:20;;;;;;;16.23;14.23;;;;;;;;;;5067449;28;20614;-57
2020/12/05 07:14:45;;;;;;;15.30;13.70;;;;;;;;;;5066687;28;20181;-57
2020/12/05 07:17:20;;;;;;;16.85;14.43;;;;;;;;;;5065453;28;20240;-57
2020/12/05 07:19:45;;;;;;;15.20;13.60;;;;;;;;;;5070860;28;20205;-57
2020/12/05 07:22:10;;;;;;;17.38;14.25;;;;;;;;;;5067846;28;21155;-58
2020/12/05 07:24:36;;;;;;;17.35;15.55;;;;;;;;;;5069601;28;20243;-57
2020/12/05 07:27:01;;;;;;;16.50;14.80;;;;;;;;;;5066216;28;20253;-57
2020/12/05 07:29:26;;;;;;;17.23;15.43;;;;;;;;;;5067928;28;20689;-57
2020/12/05 07:31:51;;;;;;;17.38;14.65;;;;;;;;;;5065132;28;20211;-57
2020/12/05 07:34:18;;;;;;;16.70;14.90;;;;;;;;;;5070018;28;20291;-57
2020/12/05 07:36:43;;;;;;;15.43;13.67;;;;;;;;;;5070122;28;20180;-57
2020/12/05 07:39:09;;;;;;;17.63;14.32;;;;;;;;;;5068330;28;20606;-57
2020/12/05 07:41:34;;;;;;;17.30;14.30;;;;;;;;;;5066073;28;20627;-58
2020/12/05 07:43:59;;;;;;;17.98;14.52;;;;;;;;;;5068001;28;20589;-57
2020/12/05 07:46:24;;;;;;;15.47;13.40;;;;;;;;;;5069604;28;20172;-57
2020/12/05 07:48:49;;;;;;;17.80;14.80;;;;;;;;;;5068319;28;20174;-58
2020/12/05 07:51:15;;;;;;;16.10;13.87;;;;;;;;;;5066121;28;20182;-57
2020/12/05 07:53:41;;;;;;;16.03;14.40;;;;;;;;;;5069565;28;20220;-57
2020/12/05 07:56:14;;;;;;;14.23;12.10;;;;;;;;;;5067190;28;20644;-58
2020/12/05 07:58:44;;;;;;;16.10;14.10;;;;;;;;;;5061871;28;20690;-58
2020/12/05 08:01:10;;;;;;;15.13;13.60;;;;;;;;;;5074653;28;20749;-58
2020/12/05 08:03:50;;;;;;;15.77;13.33;;;;;;;;;;5069527;28;20678;-57
2020/12/05 08:06:20;;;;;;;14.90;13.30;;;;;;;;;;5063048;28;20598;-58
2020/12/05 08:08:47;;;;;;;13.57;12.07;;;;;;;;;;5062821;28;20665;-58
2020/12/05 08:11:12;;;;;;;15.07;13.47;;;;;;;;;;5063764;28;20606;-57
2020/12/05 08:13:38;;;;;;;15.67;12.97;;;;;;;;;;5068818;28;20616;-58
2020/12/05 08:16:05;;;;;;;13.53;12.03;;;;;;;;;;5062007;28;20228;-57
2020/12/05 08:18:30;;;;;;;14.20;12.67;;;;;;;;;;5069140;28;20525;-56
2020/12/05 08:20:56;;;;;;;13.20;11.77;;;;;;;;;;5061316;28;20658;-56
2020/12/05 08:23:22;;;;;;;13.87;12.57;;;;;;;;;;5061263;28;20198;-57
2020/12/05 08:25:48;;;;;;;14.23;12.63;;;;;;;;;;5064356;28;20244;-57
2020/12/05 08:28:14;;;;;;;14.50;12.90;;;;;;;;;;5068323;28;20199;-57
2020/12/05 08:30:39;;;;;;;14.47;12.30;;;;;;;;;;5065487;28;21160;-57
2020/12/05 08:33:05;;;;;;;13.83;12.43;;;;;;;;;;5066926;28;20171;-57
2020/12/05 08:35:31;;;;;;;14.13;12.37;;;;;;;;;;5069093;28;20273;-57
2020/12/05 08:37:59;;;;;;;14.63;12.27;;;;;;;;;;5073618;28;20175;-57
2020/12/05 08:40:24;;;;;;;13.53;11.87;;;;;;;;;;5070272;28;20659;-57
2020/12/05 08:42:49;;;;;;;13.47;12.00;;;;;;;;;;5078274;28;20607;-57
2020/12/05 08:45:15;;;;;;;13.77;12.37;;;;;;;;;;5074081;28;20192;-58
2020/12/05 08:47:44;;;;;;;13.73;12.07;;;;;;;;;;5079454;28;20183;-58
2020/12/05 08:50:20;;;;;;;15.30;13.03;;;;;;;;;;5071554;28;20706;-58
2020/12/05 08:52:47;;;;;;;15.23;12.50;;;;;;;;;;5068537;28;20629;-57
2020/12/05 08:55:19;;;;;;;13.73;12.27;;;;;;;;;;5064379;28;21041;-58
2020/12/05 08:57:51;;;;;;;15.87;12.33;;;;;;;;;;5068525;28;20686;-57
2020/12/05 09:00:18;;;;;;;14.10;12.13;;;;;;;;;;5070938;28;20649;-57
2020/12/05 09:02:44;;;;;;;14.47;12.47;;;;;;;;;;5069038;28;20600;-57
2020/12/05 09:05:09;;;;;;;14.70;13.30;;;;;;;;;;5073373;28;20593;-57
2020/12/05 09:07:34;;;;;;;13.55;12.15;;;;;;;;;;5069735;28;20718;-59
2020/12/05 09:09:59;;;;;;;14.93;12.27;;;;;;;;;;5069303;28;20187;-58
2020/12/05 09:12:31;;;;;;;13.82;12.25;;;;;;;;;;5070507;28;20174;-58
2020/12/05 09:15:05;;;;;;;13.53;11.97;;;;;;;;;;5072430;28;20189;-58
2020/12/05 09:17:34;;;;;;;14.17;12.47;;;;;;;;;;5071572;28;20605;-59
2020/12/05 09:20:28;;;;;;;12.40;11.20;;;;;;;;;;5071242;28;21020;-59
2020/12/05 09:22:57;;;;;;;12.47;11.13;;;;;;;;;;5055171;28;20988;-59
2020/12/05 09:25:28;;;;;;;12.67;11.27;;;;;;;;;;5072142;28;21177;-59
2020/12/05 09:27:53;;;;;;;13.17;11.80;;;;;;;;;;5071918;28;20594;-59
2020/12/05 09:30:18;;;;;;;11.63;10.53;;;;;;;;;;5066210;28;20615;-59
2020/12/05 09:32:47;;;;;;;11.57;10.30;;;;;;;;;;5066572;28;20190;-57
2020/12/05 09:35:14;;;;;;;10.77;9.67;;;;;;;;;;5069357;28;20667;-59
2020/12/05 09:37:39;;;;;;;11.97;10.77;;;;;;;;;;5066378;28;20606;-57
2020/12/05 09:40:06;;;;;;;11.97;10.87;;;;;;;;;;5069704;28;20682;-57
2020/12/05 09:42:31;;;;;;;11.47;10.37;;;;;;;;;;5070370;28;20170;-57
2020/12/05 09:44:56;;;;;;;12.50;11.20;;;;;;;;;;5070931;28;20650;-57
2020/12/05 09:47:21;;;;;;;12.07;10.77;;;;;;;;;;5070855;28;20258;-56
2020/12/05 09:49:46;;;;;;;11.90;10.77;;;;;;;;;;5070208;28;20184;-58
2020/12/05 09:52:11;;;;;;;11.23;10.03;;;;;;;;;;5066648;28;20186;-57
2020/12/05 09:54:37;;;;;;;10.27;9.13;;;;;;;;;;5070267;28;20176;-59
2020/12/05 09:57:05;;;;;;;11.70;10.27;;;;;;;;;;5069691;28;20213;-58
2020/12/05 09:59:31;;;;;;;10.50;9.57;;;;;;;;;;5070649;28;20259;-59
2020/12/05 10:01:56;;;;;;;10.03;9.07;;;;;;;;;;5067803;28;20598;-59
2020/12/05 10:04:21;;;;;;;11.23;10.13;;;;;;;;;;5069663;28;20173;-59
2020/12/05 10:06:47;;;;;;;9.90;8.90;;;;;;;;;;5071604;28;20589;-58
2020/12/05 10:09:12;;;;;;;11.40;9.97;;;;;;;;;;5071478;28;20178;-58
2020/12/05 10:11:37;;;;;;;11.57;10.38;;;;;;;;;;5067551;28;20423;-59
2020/12/05 10:14:04;;;;;;;11.00;10.00;;;;;;;;;;5068463;28;20190;-58
2020/12/05 10:16:29;;;;;;;13.70;9.97;;;;;;;;;;5063407;28;20574;-59
2020/12/05 10:18:54;;;;;;;10.23;9.33;;;;;;;;;;5071373;28;20578;-58
2020/12/05 10:21:20;;;;;;;9.75;8.75;;;;;;;;;;5068844;28;20298;-59
2020/12/05 10:23:45;;;;;;;11.07;10.10;;;;;;;;;;5067445;28;20191;-58
2020/12/05 10:26:10;;;;;;;10.88;9.77;;;;;;;;;;5069187;28;20638;-59
2020/12/05 10:28:35;;;;;;;11.38;9.85;;;;;;;;;;5069657;28;20249;-58
2020/12/05 10:31:00;;;;;;;12.20;10.90;;;;;;;;;;5069249;28;20190;-59
2020/12/05 10:33:25;;;;;;;11.93;10.07;;;;;;;;;;5069214;28;20644;-58
2020/12/05 10:35:50;;;;;;;11.80;10.57;;;;;;;;;;5070825;28;20637;-58
2020/12/05 10:38:16;;;;;;;12.25;10.95;;;;;;;;;;5070888;28;20189;-59
2020/12/05 10:40:41;;;;;;;11.32;10.23;;;;;;;;;;5070605;28;20326;-58
2020/12/05 10:43:06;;;;;;;12.20;11.00;;;;;;;;;;5066393;28;20167;-58
2020/12/05 10:45:31;;;;;;;14.07;12.40;;;;;;;;;;5070115;28;20159;-59
2020/12/05 10:47:56;;;;;;;13.23;12.00;;;;;;;;;;5066745;28;20259;-58
2020/12/05 10:50:21;;;;;;;15.20;13.50;;;;;;;;;;5070490;28;20185;-58
2020/12/05 10:52:47;;;;;;;14.13;12.63;;;;;;;;;;5068723;28;20205;-59
2020/12/05 10:55:12;;;;;;;14.93;13.33;;;;;;;;;;5070266;28;20191;-58
2020/12/05 10:57:37;;;;;;;14.48;12.65;;;;;;;;;;5070048;28;20558;-59
2020/12/05 11:00:02;;;;;;;14.75;13.35;;;;;;;;;;5067967;28;20609;-58
2020/12/05 11:02:28;;;;;;;15.70;14.10;;;;;;;;;;5067133;28;20168;-59
2020/12/05 11:04:53;;;;;;;14.57;13.07;;;;;;;;;;5070587;28;20255;-58
2020/12/05 11:07:18;;;;;;;15.73;13.85;;;;;;;;;;5068359;28;20163;-59
2020/12/05 11:09:43;;;;;;;15.80;13.43;;;;;;;;;;5069364;28;20180;-59
2020/12/05 11:12:08;;;;;;;14.82;13.32;;;;;;;;;;5061083;28;20220;-59
2020/12/05 11:14:33;;;;;;;16.60;14.83;;;;;;;;;;5067519;28;20175;-58
2020/12/05 11:16:59;;;;;;;16.38;14.27;;;;;;;;;;5069840;28;20294;-58
2020/12/05 11:19:24;;;;;;;16.93;15.10;;;;;;;;;;5069232;28;20191;-58
2020/12/05 11:21:49;;;;;;;17.13;14.38;;;;;;;;;;5065335;28;20184;-58
2020/12/05 11:24:14;;;;;;;16.13;13.98;;;;;;;;;;5068810;28;20177;-58
2020/12/05 11:26:39;;;;;;;16.60;14.90;;;;;;;;;;5066407;28;20172;-58
2020/12/05 11:29:05;;;;;;;18.53;16.60;;;;;;;;;;5069657;28;20221;-59
2020/12/05 11:31:30;;;;;;;16.13;14.40;;;;;;;;;;5058978;28;20183;-59
2020/12/05 11:33:55;;;;;;;16.80;15.07;;;;;;;;;;5066946;28;20196;-58
2020/12/05 11:36:20;;;;;;;15.77;14.13;;;;;;;;;;5066135;28;20179;-58
2020/12/05 11:38:45;;;;;;;18.60;16.50;;;;;;;;;;5066468;28;20623;-58
2020/12/05 11:41:10;;;;;;;17.40;15.57;;;;;;;;;;5067363;28;20192;-58
2020/12/05 11:43:36;;;;;;;17.03;15.17;;;;;;;;;;5062274;28;20673;-58
2020/12/05 11:46:01;;;;;;;19.40;16.30;;;;;;;;;;5069116;28;20209;-59
2020/12/05 11:48:26;;;;;;;17.92;15.02;;;;;;;;;;5069671;28;20297;-59
2020/12/05 11:50:51;;;;;;;17.67;15.30;;;;;;;;;;5067741;28;20175;-59
2020/12/05 11:53:16;;;;;;;17.30;15.50;;;;;;;;;;5067632;28;20529;-58
2020/12/05 11:55:41;;;;;;;17.58;15.25;;;;;;;;;;5067264;28;20214;-59
2020/12/05 11:58:07;;;;;;;18.53;15.70;;;;;;;;;;5068340;28;20187;-59
2020/12/05 12:00:32;;;;;;;17.90;16.00;;;;;;;;;;5063992;28;20199;-60
2020/12/05 12:02:57;;;;;;;16.70;15.00;;;;;;;;;;5065196;28;20175;-59
2020/12/05 12:05:22;;;;;;;18.43;16.20;;;;;;;;;;5066317;28;20172;-58
2020/12/05 12:07:47;;;;;;;17.00;15.25;;;;;;;;;;5070783;28;20176;-58
2020/12/05 12:10:12;;;;;;;17.43;15.63;;;;;;;;;;5069666;28;20181;-57
2020/12/05 12:12:38;;;;;;;17.43;15.60;;;;;;;;;;5069243;28;20258;-57
2020/12/05 12:15:03;;;;;;;17.83;16.10;;;;;;;;;;5073104;28;20646;-59
2020/12/05 12:17:28;;;;;;;18.40;16.30;;;;;;;;;;5073068;28;20254;-59
2020/12/05 12:19:53;;;;;;;17.08;15.23;;;;;;;;;;5073381;28;20223;-59
2020/12/05 12:22:18;;;;;;;16.35;14.57;;;;;;;;;;5073172;28;20201;-59
2020/12/05 12:24:43;;;;;;;17.07;15.27;;;;;;;;;;5077203;28;20282;-59
2020/12/05 12:27:09;;;;;;;17.87;16.07;;;;;;;;;;5073257;28;20187;-59
2020/12/05 12:29:34;;;;;;;18.80;16.80;;;;;;;;;;5073786;28;20167;-59
2020/12/05 12:31:59;;;;;;;18.25;16.45;;;;;;;;;;5071337;28;20640;-59
2020/12/05 12:34:24;;;;;;;20.50;18.38;;;;;;;;;;5071718;28;20199;-59
2020/12/05 12:36:50;;;;;;;18.77;16.70;;;;;;;;;;5073315;28;20179;-59
2020/12/05 12:39:15;;;;;;;17.70;15.80;;;;;;;;;;5073096;28;20250;-59
2020/12/05 12:41:40;;;;;;;16.90;15.20;;;;;;;;;;5071188;28;20248;-59
2020/12/05 12:44:05;;;;;;;18.25;15.55;;;;;;;;;;5071124;28;20184;-59
2020/12/05 12:46:32;;;;;;;18.00;15.83;;;;;;;;;;5071349;28;20604;-58
2020/12/05 12:48:57;;;;;;;18.47;16.53;;;;;;;;;;5072920;28;20176;-59
2020/12/05 12:51:23;;;;;;;18.20;16.23;;;;;;;;;;5072195;28;20612;-59
2020/12/05 12:53:48;;;;;;;18.30;15.83;;;;;;;;;;5071166;28;20506;-59
2020/12/05 12:56:15;;;;;;;18.70;16.70;;;;;;;;;;5070138;28;20571;-60
2020/12/05 12:58:46;;;;;;;17.70;15.17;;;;;;;;;;5072364;28;20320;-59
2020/12/05 13:01:13;;;;;;;16.97;15.17;;;;;;;;;;5073214;28;21006;-60
2020/12/05 13:03:39;;;;;;;17.00;14.50;;;;;;;;;;5068632;28;20579;-59
2020/12/05 13:06:04;;;;;;;16.77;15.07;;;;;;;;;;5072961;28;20601;-59
2020/12/05 13:08:31;;;;;;;16.85;14.35;;;;;;;;;;5071735;28;20179;-60
2020/12/05 13:10:57;;;;;;;16.07;14.30;;;;;;;;;;5072688;28;20176;-59
2020/12/05 13:13:22;;;;;;;16.05;14.35;;;;;;;;;;5067744;28;20599;-59
2020/12/05 13:15:47;;;;;;;16.07;14.37;;;;;;;;;;5071933;28;20364;-59
2020/12/05 13:18:12;;;;;;;15.50;13.90;;;;;;;;;;5074934;28;20535;-58
2020/12/05 13:20:38;;;;;;;18.33;16.40;;;;;;;;;;5074667;28;21031;-58
2020/12/05 13:23:04;;;;;;;18.03;14.50;;;;;;;;;;5069376;28;20179;-58
2020/12/05 13:25:29;;;;;;;16.70;14.87;;;;;;;;;;5071376;28;20176;-58
2020/12/05 13:27:54;;;;;;;16.55;14.85;;;;;;;;;;5068225;28;20682;-58
2020/12/05 13:30:20;;;;;;;22.17;16.83;;;;;;;;;;5064834;28;20187;-58
2020/12/05 13:32:45;;;;;;;17.20;15.50;;;;;;;;;;5069189;28;20182;-58
2020/12/05 13:35:10;;;;;;;17.50;14.88;;;;;;;;;;5066772;28;20196;-58
2020/12/05 13:37:35;;;;;;;18.40;16.50;;;;;;;;;;5069159;28;20171;-58
2020/12/05 13:40:00;;;;;;;17.67;15.63;;;;;;;;;;5070120;28;20187;-58
2020/12/05 13:42:26;;;;;;;20.00;17.57;;;;;;;;;;5068497;28;20178;-58
2020/12/05 13:44:51;;;;;;;19.08;17.02;;;;;;;;;;5066543;28;20259;-58
2020/12/05 13:47:16;;;;;;;18.57;16.50;;;;;;;;;;5070172;28;20200;-58
2020/12/05 13:49:41;;;;;;;19.63;17.53;;;;;;;;;;5065992;28;20270;-58
2020/12/05 13:52:07;;;;;;;20.13;15.93;;;;;;;;;;5067983;28;20721;-59
2020/12/05 13:54:33;;;;;;;19.23;17.23;;;;;;;;;;5065056;28;20965;-58
2020/12/05 13:56:59;;;;;;;18.40;16.40;;;;;;;;;;5067947;28;20625;-58
2020/12/05 13:59:24;;;;;;;19.77;16.67;;;;;;;;;;5067396;28;21160;-58
2020/12/05 14:01:53;;;;;;;19.73;17.73;;;;;;;;;;5064748;28;20530;-58
2020/12/05 14:04:18;;;;;;;21.07;17.30;;;;;;;;;;5064247;28;20184;-58
2020/12/05 14:06:44;;;;;;;20.77;18.63;;;;;;;;;;5070420;28;20969;-58
2020/12/05 14:09:09;;;;;;;20.73;18.50;;;;;;;;;;5070478;28;20270;-58
2020/12/05 14:11:34;;;;;;;20.50;18.08;;;;;;;;;;5061426;28;20695;-57
2020/12/05 14:14:00;;;;;;;18.20;16.40;;;;;;;;;;5064818;28;20183;-58
2020/12/05 14:16:25;;;;;;;19.15;17.25;;;;;;;;;;5061037;28;20223;-58